Decoded Metar for EPGD (GDANSK in POLAND) (IATA:GDN) | Meteo·Mobile Aviation Weather
aviador You're here:

EPGD Decoded Metar

GDANSK in POLAND
Report Time2018-11-18 01:00:00
UTC Time2018-11-18 01:34:28
Flight Rules ifr IFR
Wind260° at 04 kt
W.Decomp.*RWY 29: 3.3 kt HW 2.3 kt LCW
W.Rank260° ranks 3
Current wind is below 260° avg. (7.8)
Visibility3500 m
Phenomena:Mist
Clouds:Broken 012 Hf
Ceiling1,200 ft
Temp00°C (ISA -14)
Dew Point00°C (100% RH)
AAT-3.4°C
QNH1034 hPa
Density Alt-1,896 ft
Elevation453 ft
Report Wrong Elevation
Raw Report
EPGD 180100Z 26004KT 3500 BR BKN012 00/M00 Q1034=

Extra information for EPGD:More info

Metar Taf Metar & Taf Last 4 Metars F.Rules Stats Wind Profile Meteogram Temp Stats Airport Information Weather charts Add Link Nearby VenuesMetar ALERT Operation Metar Decoded Social comments